Green Valley, Arizona
Current Conditions -  °F | °C
As of 10:53 PM on Sunday 25 Jan 2015 (Local Time) from KTUS Reporting Station
Clear Clear  
Wind Chill: 58°   Ceiling: Unl
Heat Index: 58°   Visibility: 10mi
Dew Point: 20°   Wind: 5mph
Humidity: 23%   Direction: 100°E
Pressure: 30.16"   Gusts: NA
Location:  31.91°N, 110.98°W
Report Text: KTUS 260553Z 10004KT 10SM CLR 14/M07 A3016 RMK AO2 SLP188 T01441067 10211 20139 53013 $
Loading
Personal Weather Stations






























Interactive Weather Map New forecast layout! Learn more

10-Day Weather Forecast

Advertisements
Track Severe Weather on mobile